Time;durP1;ratioP1;P1;durP2;ratioP2;P2;SDS_P1;SDS_P2;PMS_P1;PMS_P2;Temp;Humidity;BMP_temperature;BMP_pressure;BME280_temperature;BME280_humidity;BME280_pressure;Samples;Min_cycle;Max_cycle;Signal;HPM_P1;HPM_P2
2022/03/23 00:01:50;;;;;;;9.23;8.33;;;9.20;84.20;;;;;;5029659;28;20723;-83
2022/03/23 00:04:17;;;;;;;10.37;8.50;;;9.20;83.90;;;;;;5030076;28;20209;-83
2022/03/23 00:06:44;;;;;;;12.53;8.47;;;9.10;84.20;;;;;;5029479;28;20213;-83
2022/03/23 00:09:12;;;;;;;9.20;7.03;;;9.20;84.60;;;;;;5029296;28;20298;-83
2022/03/23 00:11:39;;;;;;;9.20;7.50;;;9.10;85.10;;;;;;5029348;28;20205;-82
2022/03/23 00:14:06;;;;;;;10.37;7.77;;;9.10;85.10;;;;;;5029191;28;20231;-83
2022/03/23 00:16:35;;;;;;;13.27;9.23;;;9.10;85.20;;;;;;5029218;28;20209;-82
2022/03/23 00:19:06;;;;;;;10.00;8.07;;;9.10;85.40;;;;;;5028873;28;20715;-83
2022/03/23 00:21:33;;;;;;;10.97;8.27;;;9.10;85.10;;;;;;5028717;28;20216;-82
2022/03/23 00:23:59;;;;;;;9.80;8.43;;;9.10;85.40;;;;;;5028901;28;21013;-81
2022/03/23 00:26:28;;;;;;;13.13;8.40;;;9.00;85.60;;;;;;5028703;28;20270;-78
2022/03/23 00:28:55;;;;;;;12.93;9.13;;;8.90;85.70;;;;;;5027975;28;20579;-78
2022/03/23 00:31:22;;;;;;;12.53;8.83;;;8.90;85.60;;;;;;5044278;28;20216;-79
2022/03/23 00:33:50;;;;;;;10.77;8.20;;;8.90;85.80;;;;;;5048306;28;20208;-78
2022/03/23 00:36:17;;;;;;;11.27;8.83;;;8.80;86.20;;;;;;5048457;28;20277;-79
2022/03/23 00:38:44;;;;;;;11.47;8.33;;;8.90;86.30;;;;;;5048061;28;20636;-79
2022/03/23 00:41:14;;;;;;;11.70;8.50;;;8.90;86.80;;;;;;5038220;28;20313;-79
2022/03/23 00:43:41;;;;;;;11.70;9.00;;;8.80;87.40;;;;;;5030110;28;20205;-79
2022/03/23 00:46:08;;;;;;;13.63;8.70;;;8.80;86.90;;;;;;5042162;28;20609;-79
2022/03/23 00:48:36;;;;;;;11.87;8.80;;;8.80;86.80;;;;;;5028522;28;20204;-78
2022/03/23 00:51:06;;;;;;;14.00;9.00;;;8.80;86.90;;;;;;5027628;28;20630;-79
2022/03/23 00:53:34;;;;;;;11.23;8.17;;;8.70;87.00;;;;;;5027874;28;20736;-78
2022/03/23 00:56:01;;;;;;;15.53;9.47;;;8.70;86.90;;;;;;5028273;28;20296;-78
2022/03/23 00:58:27;;;;;;;10.53;8.00;;;8.60;87.00;;;;;;5034977;28;20205;-79
2022/03/23 01:00:55;;;;;;;13.53;8.63;;;8.60;87.20;;;;;;5047700;28;20581;-79
2022/03/23 01:03:22;;;;;;;14.13;8.60;;;8.60;87.60;;;;;;5047975;28;20680;-78
2022/03/23 01:05:51;;;;;;;11.70;8.67;;;8.70;88.00;;;;;;5047644;28;20208;-79
2022/03/23 01:08:19;;;;;;;10.17;8.47;;;8.70;88.20;;;;;;5047728;28;20250;-79
2022/03/23 01:10:46;;;;;;;13.10;8.83;;;8.60;88.30;;;;;;5047817;28;20232;-79
2022/03/23 01:13:12;;;;;;;10.13;8.13;;;8.60;88.30;;;;;;5037343;28;20262;-79
2022/03/23 01:15:40;;;;;;;10.37;8.53;;;8.50;88.20;;;;;;5027662;28;20287;-79
2022/03/23 01:18:07;;;;;;;11.17;8.50;;;8.50;88.50;;;;;;5027607;28;20216;-80
2022/03/23 01:20:34;;;;;;;12.10;8.70;;;8.40;88.60;;;;;;5027986;28;20221;-79
2022/03/23 01:23:01;;;;;;;12.47;7.83;;;8.30;88.70;;;;;;5017178;28;20299;-80
2022/03/23 01:25:32;;;;;;;12.73;8.93;;;8.30;89.00;;;;;;5007979;28;20622;-80
2022/03/23 01:27:58;;;;;;;10.27;8.10;;;8.20;89.00;;;;;;5034340;28;20208;-84
2022/03/23 01:30:25;;;;;;;11.53;8.50;;;8.20;89.30;;;;;;5027677;28;20296;-84
2022/03/23 01:32:52;;;;;;;10.80;8.10;;;8.00;89.10;;;;;;5027973;28;20193;-84
2022/03/23 01:35:20;;;;;;;14.47;9.07;;;8.00;89.30;;;;;;5027450;28;20213;-84
2022/03/23 01:37:47;;;;;;;9.80;7.93;;;8.00;89.40;;;;;;5028009;28;20291;-84
2022/03/23 01:40:14;;;;;;;10.90;8.77;;;7.90;90.00;;;;;;5031859;28;20223;-83
2022/03/23 01:42:42;;;;;;;15.70;9.27;;;8.00;90.20;;;;;;5048401;28;20235;-84
2022/03/23 01:45:11;;;;;;;11.80;9.33;;;8.00;90.20;;;;;;5047498;28;20208;-83
2022/03/23 01:47:38;;;;;;;11.90;8.27;;;7.90;90.10;;;;;;5028631;28;20621;-83
2022/03/23 01:50:07;;;;;;;11.50;8.93;;;7.90;90.20;;;;;;5028144;28;20232;-83
2022/03/23 01:52:34;;;;;;;13.90;9.13;;;7.90;90.20;;;;;;5021177;28;21150;-83
2022/03/23 01:55:02;;;;;;;13.63;8.57;;;8.00;90.30;;;;;;5029812;28;20219;-84
2022/03/23 01:57:30;;;;;;;12.27;9.17;;;8.00;90.40;;;;;;5048073;28;20615;-84
2022/03/23 01:59:58;;;;;;;13.67;8.63;;;8.00;90.50;;;;;;5047798;28;20984;-84
2022/03/23 02:02:25;;;;;;;12.67;8.27;;;7.90;90.60;;;;;;5047528;28;20208;-79
2022/03/23 02:04:52;;;;;;;15.20;9.13;;;7.90;90.60;;;;;;5047944;28;20208;-79
2022/03/23 02:07:19;;;;;;;13.30;8.67;;;8.00;90.50;;;;;;5047925;28;20662;-79
2022/03/23 02:09:46;;;;;;;13.30;8.43;;;7.90;90.50;;;;;;5032315;28;20232;-79
2022/03/23 02:12:12;;;;;;;11.10;8.63;;;8.00;90.60;;;;;;5027615;28;20209;-79
2022/03/23 02:14:39;;;;;;;13.10;8.57;;;7.90;90.50;;;;;;5027291;28;20212;-80
2022/03/23 02:17:08;;;;;;;11.87;8.43;;;7.90;90.50;;;;;;5027789;28;20213;-79
2022/03/23 02:19:36;;;;;;;11.57;8.73;;;7.80;90.50;;;;;;5029945;28;20749;-80
2022/03/23 02:22:04;;;;;;;14.20;9.67;;;7.70;90.60;;;;;;5028753;28;20217;-82
2022/03/23 02:24:32;;;;;;;12.37;8.60;;;7.70;90.60;;;;;;5012010;28;20213;-84
2022/03/23 02:26:59;;;;;;;11.63;8.73;;;7.70;90.70;;;;;;5011563;28;20216;-85
2022/03/23 02:29:29;;;;;;;16.23;9.10;;;7.70;90.70;;;;;;5011469;28;20307;-84
2022/03/23 02:31:57;;;;;;;14.87;8.83;;;7.70;90.70;;;;;;5011719;28;20683;-83
2022/03/23 02:34:25;;;;;;;15.93;9.57;;;7.70;90.80;;;;;;5028638;28;20212;-84
2022/03/23 02:36:52;;;;;;;18.37;9.90;;;7.60;90.90;;;;;;5031106;28;20208;-83
2022/03/23 02:39:20;;;;;;;13.00;9.10;;;7.60;91.00;;;;;;5031074;28;20250;-83
2022/03/23 02:41:47;;;;;;;14.20;9.57;;;7.50;91.10;;;;;;5034449;28;20235;-84
2022/03/23 02:44:15;;;;;;;13.80;9.90;;;7.40;91.20;;;;;;5051037;28;20357;-83
2022/03/23 02:46:42;;;;;;;13.63;9.20;;;7.40;91.70;;;;;;5051741;28;20204;-83
2022/03/23 02:49:09;;;;;;;15.50;9.27;;;7.40;91.40;;;;;;5050310;28;20204;-78
2022/03/23 02:51:36;;;;;;;15.93;9.70;;;7.30;91.40;;;;;;5036211;28;20232;-87
2022/03/23 03:02:44;;;;;;;12.87;9.43;;;7.20;91.30;;;;;;5032065;28;20192;-84
2022/03/23 03:05:12;;;;;;;13.00;9.43;;;7.20;91.30;;;;;;5031787;28;20259;-83
2022/03/23 03:10:26;;;;;;;12.87;8.77;;;7.10;91.30;;;;;;5031441;28;20215;-85
2022/03/23 03:12:55;;;;;;;14.23;9.30;;;7.10;91.20;;;;;;5031891;28;20208;-85
2022/03/23 03:15:23;;;;;;;13.17;9.43;;;7.10;91.20;;;;;;5031513;28;20275;-85
2022/03/23 03:17:49;;;;;;;11.33;8.83;;;7.00;91.20;;;;;;5031668;28;20671;-85
2022/03/23 03:20:17;;;;;;;13.27;9.87;;;7.00;91.20;;;;;;5030985;28;20334;-85
2022/03/23 03:22:46;;;;;;;15.63;10.30;;;7.00;91.00;;;;;;5038176;28;20208;-83
2022/03/23 03:25:14;;;;;;;14.13;10.67;;;7.00;91.00;;;;;;5050600;28;20244;-82
2022/03/23 03:27:41;;;;;;;15.50;9.67;;;6.80;91.00;;;;;;5050169;28;20261;-83
2022/03/23 03:30:12;;;;;;;14.27;9.63;;;6.70;90.90;;;;;;5037583;28;20275;-81
2022/03/23 03:32:39;;;;;;;14.13;9.57;;;6.60;91.00;;;;;;5030154;28;20259;-81
2022/03/23 03:35:07;;;;;;;16.20;9.43;;;6.60;91.00;;;;;;5030081;28;20208;-82
2022/03/23 03:37:35;;;;;;;16.30;9.83;;;6.60;90.90;;;;;;5030318;28;20308;-83
2022/03/23 03:40:02;;;;;;;13.03;9.73;;;6.60;90.80;;;;;;5030528;28;20718;-83
2022/03/23 03:42:29;;;;;;;11.50;9.37;;;6.50;90.70;;;;;;5029598;28;20663;-83
2022/03/23 03:44:57;;;;;;;12.27;9.10;;;6.20;90.70;;;;;;5029895;28;20200;-82
2022/03/23 03:47:25;;;;;;;11.73;9.33;;;6.20;90.90;;;;;;5029710;28;20201;-84
2022/03/23 03:49:52;;;;;;;12.77;9.17;;;6.20;91.00;;;;;;5029938;28;20628;-83
2022/03/23 03:52:19;;;;;;;14.53;9.53;;;6.30;90.80;;;;;;5029142;28;20664;-82
2022/03/23 03:54:46;;;;;;;14.10;10.00;;;6.30;90.70;;;;;;5029473;28;20213;-79
2022/03/23 03:57:12;;;;;;;11.53;9.20;;;6.40;90.60;;;;;;5029507;28;20616;-79
2022/03/23 03:59:39;;;;;;;13.17;9.57;;;6.40;90.50;;;;;;5029279;28;20213;-79
2022/03/23 04:02:06;;;;;;;14.10;10.07;;;6.40;90.50;;;;;;5030163;28;20209;-84
2022/03/23 04:04:34;;;;;;;13.07;9.10;;;6.50;90.50;;;;;;5029430;28;20240;-79
2022/03/23 04:07:01;;;;;;;10.50;9.20;;;6.40;90.30;;;;;;5029403;28;20208;-77
2022/03/23 04:09:28;;;;;;;12.30;9.30;;;6.30;90.30;;;;;;5029222;28;20568;-79
2022/03/23 04:11:55;;;;;;;13.20;9.57;;;6.30;90.30;;;;;;5029122;28;20229;-72
2022/03/23 04:14:21;;;;;;;13.70;10.23;;;6.20;90.30;;;;;;5029868;28;20213;-83
2022/03/23 04:16:48;;;;;;;14.13;9.60;;;6.20;90.30;;;;;;5011002;28;20251;-82
2022/03/23 04:19:15;;;;;;;15.20;9.30;;;6.20;90.20;;;;;;5010102;28;20241;-83
2022/03/23 04:21:43;;;;;;;13.07;9.63;;;6.20;90.20;;;;;;5008697;28;20263;-83
2022/03/23 04:24:09;;;;;;;14.07;9.93;;;6.20;90.20;;;;;;5026325;28;20546;-84
2022/03/23 04:26:36;;;;;;;15.70;9.83;;;6.20;90.20;;;;;;5027634;28;20239;-84
2022/03/23 04:29:03;;;;;;;12.10;9.43;;;6.10;90.30;;;;;;5027044;28;20213;-83
2022/03/23 04:31:29;;;;;;;12.07;9.60;;;6.10;90.30;;;;;;5027044;28;20237;-84
2022/03/23 04:33:56;;;;;;;11.70;9.80;;;6.10;90.40;;;;;;5027563;28;20239;-83
2022/03/23 04:36:23;;;;;;;13.90;9.47;;;6.20;90.40;;;;;;5027886;28;20240;-82
2022/03/23 04:38:51;;;;;;;15.17;9.50;;;6.20;90.60;;;;;;5027965;28;21021;-83
2022/03/23 04:41:18;;;;;;;14.10;9.07;;;6.00;90.30;;;;;;5026494;28;20213;-84
2022/03/23 04:43:44;;;;;;;13.93;9.90;;;5.80;90.50;;;;;;5027585;28;20219;-84
2022/03/23 04:46:11;;;;;;;11.50;8.90;;;5.90;90.60;;;;;;5028153;28;20232;-83
2022/03/23 04:48:37;;;;;;;12.97;9.93;;;5.90;90.50;;;;;;5027961;28;20217;-84
2022/03/23 04:51:08;;;;;;;12.07;9.33;;;5.80;90.60;;;;;;5027317;28;20275;-83
2022/03/23 04:53:35;;;;;;;13.63;9.43;;;5.90;90.60;;;;;;5027048;28;20258;-84
2022/03/23 04:56:06;;;;;;;13.27;8.90;;;5.90;90.60;;;;;;5027393;28;20201;-84
2022/03/23 04:58:34;;;;;;;14.37;9.23;;;5.90;90.60;;;;;;5027857;28;20208;-84
2022/03/23 05:01:01;;;;;;;13.17;9.30;;;5.90;90.60;;;;;;5024507;28;20231;-86
2022/03/23 05:03:28;;;;;;;12.27;9.50;;;5.70;90.50;;;;;;5027959;28;20269;-86
2022/03/23 05:05:55;;;;;;;13.90;9.37;;;5.80;90.60;;;;;;5028359;28;20284;-86
2022/03/23 05:08:22;;;;;;;14.23;9.10;;;5.90;90.70;;;;;;5028609;28;20201;-86
2022/03/23 05:10:48;;;;;;;12.60;8.73;;;5.90;90.70;;;;;;5028047;28;20225;-87
2022/03/23 05:13:16;;;;;;;10.83;8.97;;;5.80;90.70;;;;;;5028510;28;20565;-83
2022/03/23 05:15:43;;;;;;;14.73;9.43;;;5.80;90.80;;;;;;5028071;28;20205;-85
2022/03/23 05:18:10;;;;;;;13.03;9.93;;;5.90;90.80;;;;;;5027852;28;20224;-84
2022/03/23 05:20:37;;;;;;;11.53;9.10;;;5.90;90.90;;;;;;5028577;28;20251;-84
2022/03/23 05:23:03;;;;;;;13.53;9.57;;;5.90;91.00;;;;;;5028428;28;20205;-83
2022/03/23 05:25:31;;;;;;;14.70;10.33;;;5.80;91.40;;;;;;5028626;28;20200;-84
2022/03/23 05:27:58;;;;;;;12.73;9.83;;;5.80;91.60;;;;;;5028462;28;20201;-84
2022/03/23 05:30:26;;;;;;;13.40;9.77;;;5.90;91.70;;;;;;5027631;28;20277;-83
2022/03/23 05:32:52;;;;;;;14.30;9.70;;;5.90;91.70;;;;;;5028453;28;20203;-84
2022/03/23 05:35:19;;;;;;;12.63;10.17;;;5.90;92.10;;;;;;5027797;28;20211;-82
2022/03/23 05:37:46;;;;;;;13.60;9.63;;;6.00;92.30;;;;;;5025067;28;20197;-83
2022/03/23 05:40:13;;;;;;;12.13;9.67;;;5.90;92.80;;;;;;5027307;28;20211;-84
2022/03/23 05:42:40;;;;;;;14.83;9.80;;;6.00;93.30;;;;;;5027984;28;20205;-84
2022/03/23 05:45:08;;;;;;;15.37;10.50;;;6.00;93.00;;;;;;5019433;28;20874;-86
2022/03/23 05:47:36;;;;;;;16.27;9.97;;;6.00;92.90;;;;;;5027730;28;20205;-84
2022/03/23 05:50:04;;;;;;;17.13;9.23;;;6.00;93.00;;;;;;5027463;28;20299;-85
2022/03/23 05:52:30;;;;;;;14.13;9.60;;;6.00;92.90;;;;;;5027040;28;20221;-85
2022/03/23 05:54:57;;;;;;;13.73;10.37;;;6.00;92.80;;;;;;5031752;28;20201;-85
2022/03/23 05:57:24;;;;;;;13.27;9.20;;;5.90;92.80;;;;;;5031334;28;20211;-85
2022/03/23 05:59:50;;;;;;;13.73;9.77;;;5.90;92.90;;;;;;5030952;28;20585;-85
2022/03/23 06:02:17;;;;;;;14.33;9.73;;;5.90;92.90;;;;;;5031065;28;20201;-84
2022/03/23 06:04:46;;;;;;;10.97;8.60;;;5.90;92.70;;;;;;5031556;28;20247;-85
2022/03/23 06:07:12;;;;;;;11.97;9.13;;;6.00;92.90;;;;;;5031412;28;20241;-84
2022/03/23 06:09:39;;;;;;;15.37;10.17;;;6.10;92.80;;;;;;5031387;28;20205;-84
2022/03/23 06:12:09;;;;;;;12.80;9.27;;;6.20;92.80;;;;;;5025773;28;20282;-85
2022/03/23 06:14:35;;;;;;;12.43;9.27;;;6.20;93.00;;;;;;5031222;28;20568;-84
2022/03/23 06:17:02;;;;;;;14.73;9.20;;;6.30;93.40;;;;;;5031226;28;20197;-85
2022/03/23 06:19:29;;;;;;;13.23;9.10;;;6.40;93.50;;;;;;5030043;28;20257;-85
2022/03/23 06:21:57;;;;;;;11.43;9.37;;;6.40;93.40;;;;;;5030389;28;20194;-85
2022/03/23 06:24:23;;;;;;;13.33;10.70;;;6.60;93.00;;;;;;5030797;28;20247;-85
2022/03/23 06:26:50;;;;;;;13.80;10.33;;;6.60;92.60;;;;;;5030814;28;20201;-85
2022/03/23 06:29:17;;;;;;;14.47;10.03;;;6.60;92.50;;;;;;5030215;28;20247;-86
2022/03/23 06:31:44;;;;;;;14.70;10.20;;;6.60;92.80;;;;;;5030072;28;20691;-86
2022/03/23 06:34:11;;;;;;;18.97;10.90;;;6.70;92.30;;;;;;5029787;28;20243;-87
2022/03/23 06:36:37;;;;;;;15.23;10.10;;;6.80;92.00;;;;;;5030311;28;20204;-85
2022/03/23 06:39:06;;;;;;;11.53;9.47;;;6.90;91.90;;;;;;5030322;28;20208;-86
2022/03/23 06:41:32;;;;;;;16.33;10.33;;;7.00;91.80;;;;;;5030570;28;20205;-86
2022/03/23 06:43:59;;;;;;;13.77;10.87;;;7.10;92.10;;;;;;5030659;28;20197;-83
2022/03/23 06:46:26;;;;;;;16.37;11.30;;;7.10;92.20;;;;;;5030903;28;20802;-84
2022/03/23 06:48:53;;;;;;;15.80;10.67;;;7.20;92.00;;;;;;5030716;28;20204;-84
2022/03/23 06:51:20;;;;;;;13.83;11.03;;;7.30;91.70;;;;;;5029855;28;20314;-83
2022/03/23 06:53:47;;;;;;;14.60;11.27;;;7.40;91.40;;;;;;5030447;28;20732;-84
2022/03/23 06:56:15;;;;;;;15.57;11.50;;;7.40;91.00;;;;;;5030850;28;20208;-84
2022/03/23 06:58:42;;;;;;;25.37;12.20;;;7.50;90.50;;;;;;5029513;28;20291;-84
2022/03/23 07:01:08;;;;;;;17.03;12.13;;;7.60;90.50;;;;;;5030656;28;20262;-84
2022/03/23 07:03:35;;;;;;;15.63;11.33;;;7.70;90.60;;;;;;5030364;28;20205;-84
2022/03/23 07:06:01;;;;;;;16.93;11.13;;;7.70;90.60;;;;;;5030218;28;20209;-84
2022/03/23 07:11:13;;;;;;;13.63;11.03;;;7.80;92.00;;;;;;5025307;28;20676;-85
2022/03/23 07:13:41;;;;;;;15.67;10.93;;;7.80;93.00;;;;;;5030201;28;20258;-85
2022/03/23 07:16:07;;;;;;;15.13;11.23;;;7.90;92.70;;;;;;5030189;28;20209;-84
2022/03/23 07:18:34;;;;;;;16.33;11.00;;;8.00;92.60;;;;;;5029912;28;20233;-84
2022/03/23 07:21:04;;;;;;;15.20;10.93;;;8.10;92.00;;;;;;5029451;28;20251;-84
2022/03/23 07:23:30;;;;;;;17.43;10.30;;;8.20;92.50;;;;;;5028170;28;20213;-84
2022/03/23 07:25:57;;;;;;;14.40;10.97;;;8.30;91.80;;;;;;5030202;28;20193;-84
2022/03/23 07:28:24;;;;;;;17.17;10.97;;;8.40;91.70;;;;;;5029433;28;20726;-84
2022/03/23 07:30:52;;;;;;;15.60;10.53;;;8.50;91.00;;;;;;5029542;28;20674;-84
2022/03/23 07:33:19;;;;;;;18.97;10.93;;;8.60;91.20;;;;;;5029473;28;20688;-84
2022/03/23 07:35:45;;;;;;;14.83;11.23;;;8.70;90.20;;;;;;5029564;28;20213;-84
2022/03/23 07:38:12;;;;;;;16.07;11.43;;;8.80;89.90;;;;;;5029767;28;20280;-84
2022/03/23 07:40:39;;;;;;;14.57;11.27;;;8.80;88.90;;;;;;5029834;28;20204;-84
2022/03/23 07:43:06;;;;;;;14.20;11.07;;;8.90;87.70;;;;;;5029533;28;20625;-85
2022/03/23 07:45:33;;;;;;;15.77;11.23;;;9.00;87.60;;;;;;5029273;28;20294;-84
2022/03/23 07:48:01;;;;;;;14.63;10.80;;;9.00;87.00;;;;;;5028868;28;20447;-84
2022/03/23 07:50:28;;;;;;;16.50;11.90;;;9.10;87.10;;;;;;5029051;28;20200;-84
2022/03/23 07:52:55;;;;;;;15.23;11.37;;;9.10;87.00;;;;;;5029635;28;20240;-84
2022/03/23 07:55:23;;;;;;;15.60;10.87;;;9.20;87.00;;;;;;5029029;28;20744;-84
2022/03/23 07:57:49;;;;;;;17.53;11.80;;;9.30;87.50;;;;;;5029564;28;20209;-85
2022/03/23 08:00:16;;;;;;;17.20;11.77;;;9.40;87.50;;;;;;5029942;28;20216;-85
2022/03/23 08:02:44;;;;;;;18.70;12.07;;;9.40;86.70;;;;;;5029899;28;20205;-84
2022/03/23 08:05:12;;;;;;;15.77;11.03;;;9.50;86.50;;;;;;5029799;28;20224;-84
2022/03/23 08:07:42;;;;;;;12.90;11.20;;;9.50;86.60;;;;;;5030182;28;20988;-84
2022/03/23 08:10:10;;;;;;;14.67;11.47;;;9.60;86.50;;;;;;5029774;28;20201;-85
2022/03/23 08:12:36;;;;;;;14.27;11.13;;;9.60;86.20;;;;;;5029802;28;20772;-85
2022/03/23 08:15:03;;;;;;;13.47;11.23;;;9.80;87.10;;;;;;5029567;28;20211;-84
2022/03/23 08:17:30;;;;;;;15.83;10.77;;;9.90;87.20;;;;;;5028909;28;20626;-83
2022/03/23 08:22:43;;;;;;;13.57;9.97;;;10.00;86.40;;;;;;5033621;28;20669;-84
2022/03/23 08:25:10;;;;;;;16.20;11.03;;;10.10;86.20;;;;;;5028247;28;20216;-84
2022/03/23 08:27:36;;;;;;;15.90;11.40;;;10.10;85.80;;;;;;5027908;28;20718;-84
2022/03/23 08:30:04;;;;;;;17.37;11.17;;;10.20;85.70;;;;;;5027947;28;20205;-85
2022/03/23 08:32:30;;;;;;;16.47;11.83;;;10.30;86.20;;;;;;5028479;28;20626;-84
2022/03/23 08:34:57;;;;;;;15.93;11.20;;;10.30;86.00;;;;;;5028622;28;20267;-84
2022/03/23 08:37:24;;;;;;;16.80;11.23;;;10.40;86.00;;;;;;5028462;28;20201;-86
2022/03/23 08:39:51;;;;;;;13.50;10.20;;;10.50;85.50;;;;;;5028257;28;20201;-84
2022/03/23 08:42:18;;;;;;;16.97;11.00;;;10.60;84.90;;;;;;5027539;28;20208;-84
2022/03/23 08:44:45;;;;;;;16.00;11.03;;;10.70;85.00;;;;;;5027915;28;20322;-85
2022/03/23 08:47:12;;;;;;;15.37;11.20;;;10.80;85.20;;;;;;5028721;28;20608;-84
2022/03/23 08:49:39;;;;;;;14.80;11.87;;;10.90;85.00;;;;;;5027933;28;20208;-84
2022/03/23 08:52:06;;;;;;;14.63;10.90;;;11.00;82.20;;;;;;5027475;28;20221;-84
2022/03/23 08:54:33;;;;;;;12.43;10.37;;;11.00;82.60;;;;;;5028151;28;20205;-84
2022/03/23 08:57:01;;;;;;;14.17;10.63;;;11.10;83.00;;;;;;5028121;28;20220;-84
2022/03/23 08:59:28;;;;;;;16.63;10.87;;;11.10;83.10;;;;;;5025430;28;20197;-86
2022/03/23 09:01:55;;;;;;;13.80;10.60;;;11.20;83.50;;;;;;5027478;28;20231;-84
2022/03/23 09:04:21;;;;;;;12.87;10.43;;;11.30;82.70;;;;;;5027173;28;20259;-84
2022/03/23 09:06:48;;;;;;;16.90;10.67;;;11.30;82.20;;;;;;5027734;28;20271;-84
2022/03/23 09:09:15;;;;;;;19.17;11.33;;;11.50;82.60;;;;;;5027313;28;20613;-85
2022/03/23 09:11:43;;;;;;;17.33;11.43;;;11.50;82.50;;;;;;5028179;28;20201;-85
2022/03/23 09:14:12;;;;;;;18.10;11.40;;;11.70;82.70;;;;;;5027861;28;20224;-83
2022/03/23 09:16:39;;;;;;;14.73;10.93;;;11.80;82.90;;;;;;5027601;28;20213;-84
2022/03/23 09:19:05;;;;;;;14.13;10.93;;;12.10;80.90;;;;;;5027457;28;20255;-84
2022/03/23 09:21:32;;;;;;;16.30;10.43;;;12.30;79.00;;;;;;5027471;28;20207;-84
2022/03/23 09:23:59;;;;;;;16.10;10.90;;;12.40;79.10;;;;;;5027806;28;20253;-84
2022/03/23 09:26:26;;;;;;;16.23;11.13;;;12.50;78.90;;;;;;5027486;28;20200;-85
2022/03/23 09:28:52;;;;;;;17.27;12.20;;;12.60;77.90;;;;;;5027648;28;20209;-84
2022/03/23 09:31:21;;;;;;;16.70;11.00;;;12.80;76.70;;;;;;5027600;28;20204;-84
2022/03/23 09:33:48;;;;;;;15.90;11.20;;;13.00;77.30;;;;;;5027441;28;20224;-84
2022/03/23 09:39:05;;;;;;;13.83;10.57;;;13.30;75.00;;;;;;5028665;28;20204;-85
2022/03/23 09:41:34;;;;;;;16.33;10.57;;;13.30;74.70;;;;;;5028346;28;20667;-84
2022/03/23 09:44:01;;;;;;;12.67;10.33;;;13.40;74.80;;;;;;5028764;28;20224;-86
2022/03/23 09:46:29;;;;;;;15.30;10.23;;;13.50;73.80;;;;;;5028357;28;20243;-85
2022/03/23 09:48:56;;;;;;;15.17;11.23;;;13.70;73.40;;;;;;5028211;28;20197;-84
2022/03/23 09:51:24;;;;;;;13.63;11.10;;;13.90;72.50;;;;;;5028015;28;20205;-85
2022/03/23 09:53:52;;;;;;;16.97;11.60;;;14.00;72.70;;;;;;5027556;28;20278;-85
2022/03/23 09:56:18;;;;;;;15.83;11.50;;;14.10;72.20;;;;;;5027861;28;20729;-85
2022/03/23 09:58:45;;;;;;;26.10;12.13;;;14.10;71.10;;;;;;5028046;28;20200;-84
2022/03/23 10:02:28;;;;;;;13.10;10.47;;;14.20;71.70;;;;;;5027552;28;20258;-84
2022/03/23 10:05:43;;;;;;;11.77;9.53;;;14.40;70.60;;;;;;5027492;28;20266;-85
2022/03/23 10:08:43;;;;;;;11.87;9.90;;;14.50;70.00;;;;;;5027075;28;20199;-85
2022/03/23 10:12:30;;;;;;;13.13;10.77;;;14.60;68.80;;;;;;4998261;28;20259;-84
2022/03/23 10:15:34;;;;;;;13.33;10.53;;;14.80;66.60;;;;;;5024595;28;20224;-85
2022/03/23 10:18:38;;;;;;;15.90;9.97;;;14.70;68.50;;;;;;5025523;28;20220;-85
2022/03/23 10:21:08;;;;;;;13.33;10.23;;;14.70;68.10;;;;;;5027578;28;20209;-85
2022/03/23 10:23:35;;;;;;;13.93;10.33;;;14.90;66.60;;;;;;5029920;28;20296;-85
2022/03/23 10:26:11;;;;;;;18.13;11.20;;;15.00;67.30;;;;;;5028037;28;20671;-85
2022/03/23 10:28:39;;;;;;;13.80;10.47;;;15.30;66.80;;;;;;5020187;28;20283;-85
2022/03/23 10:31:16;;;;;;;22.57;12.17;;;15.40;67.00;;;;;;5027571;28;20266;-85
2022/03/23 10:33:43;;;;;;;16.57;11.63;;;15.60;67.30;;;;;;5027983;28;20661;-86
2022/03/23 10:36:11;;;;;;;17.23;11.43;;;15.70;66.90;;;;;;5027921;28;20216;-85
2022/03/23 10:38:40;;;;;;;16.43;10.57;;;15.80;66.70;;;;;;5027339;28;20298;-86
2022/03/23 10:41:09;;;;;;;13.77;11.20;;;15.80;65.70;;;;;;5030838;28;20296;-86
2022/03/23 10:43:40;;;;;;;16.50;11.97;;;16.10;66.40;;;;;;5031312;28;20208;-87
2022/03/23 10:46:11;;;;;;;15.03;11.07;;;16.00;64.60;;;;;;5031963;28;20193;-84
2022/03/23 10:48:50;;;;;;;18.33;12.00;;;16.20;65.40;;;;;;5028835;28;20251;-85
2022/03/23 10:51:26;;;;;;;14.70;11.47;;;16.10;66.00;;;;;;5012758;28;20248;-86
2022/03/23 10:53:52;;;;;;;15.90;12.13;;;16.30;65.40;;;;;;5031333;28;20622;-87
2022/03/23 10:56:29;;;;;;;15.93;11.60;;;16.40;64.00;;;;;;5031467;28;20204;-86
2022/03/23 10:59:21;;;;;;;17.93;11.63;;;16.40;62.80;;;;;;5031143;28;20243;-85
2022/03/23 11:01:59;;;;;;;16.90;11.43;;;16.50;63.70;;;;;;5030846;28;20251;-85
2022/03/23 11:04:29;;;;;;;16.37;11.87;;;16.70;63.50;;;;;;5030725;28;20201;-86
2022/03/23 11:06:56;;;;;;;12.93;11.40;;;16.80;63.60;;;;;;5031243;28;20334;-84
2022/03/23 11:18:07;;;;;;;19.73;13.17;;;17.10;62.10;;;;;;5026973;28;20251;-85
2022/03/23 11:20:45;;;;;;;16.93;12.33;;;17.20;61.50;;;;;;5030110;28;20275;-85
2022/03/23 11:23:20;;;;;;;16.10;12.47;;;17.20;60.40;;;;;;5032270;28;20215;-85
2022/03/23 11:25:48;;;;;;;15.23;11.70;;;17.30;60.10;;;;;;5030462;28;20598;-85
2022/03/23 11:28:16;;;;;;;19.13;12.30;;;17.50;61.10;;;;;;5030531;28;20227;-85
2022/03/23 11:30:45;;;;;;;15.30;11.97;;;17.60;61.00;;;;;;5030372;28;20197;-86
2022/03/23 11:33:13;;;;;;;14.53;11.40;;;17.70;61.20;;;;;;5029946;28;20247;-85
2022/03/23 11:35:46;;;;;;;18.33;12.33;;;17.60;60.00;;;;;;5030298;28;20205;-85
2022/03/23 11:38:13;;;;;;;15.90;12.30;;;17.70;60.10;;;;;;5030067;28;20189;-85
2022/03/23 11:40:41;;;;;;;17.23;12.63;;;17.70;59.80;;;;;;5030086;28;20835;-85
2022/03/23 11:43:10;;;;;;;17.13;12.17;;;17.90;59.10;;;;;;5029685;28;20293;-84
2022/03/23 11:45:38;;;;;;;19.37;12.77;;;18.00;58.80;;;;;;5025887;28;20229;-85
2022/03/23 11:48:15;;;;;;;15.63;11.67;;;18.10;59.10;;;;;;5029317;28;20757;-84
2022/03/23 11:50:52;;;;;;;13.30;10.97;;;18.20;59.10;;;;;;5029085;28;20188;-84
2022/03/23 11:53:27;;;;;;;19.67;13.17;;;18.30;58.40;;;;;;5023375;28;20220;-84
2022/03/23 11:56:00;;;;;;;17.00;11.93;;;18.40;58.10;;;;;;5029418;28;20193;-85
2022/03/23 11:58:35;;;;;;;13.70;11.40;;;18.50;58.70;;;;;;5029372;28;20200;-84
2022/03/23 12:01:08;;;;;;;16.40;12.40;;;18.70;57.80;;;;;;5026701;28;20731;-84
2022/03/23 12:03:50;;;;;;;16.37;11.83;;;18.60;57.10;;;;;;5029316;28;20193;-84
2022/03/23 12:06:19;;;;;;;16.27;12.50;;;18.60;57.50;;;;;;5028174;28;20600;-84
2022/03/23 12:08:49;;;;;;;16.37;11.57;;;18.60;58.30;;;;;;5028621;28;20208;-83
2022/03/23 12:11:35;;;;;;;19.20;12.20;;;18.70;58.60;;;;;;5028463;28;20197;-84
2022/03/23 12:14:03;;;;;;;16.10;12.03;;;18.90;58.30;;;;;;5022408;28;20213;-84
2022/03/23 12:17:07;;;;;;;16.07;13.00;;;19.00;58.80;;;;;;5028457;28;20638;-83
2022/03/23 12:19:55;;;;;;;14.53;12.30;;;19.00;56.40;;;;;;5027800;28;20232;-83
2022/03/23 12:22:53;;;;;;;17.70;11.77;;;19.10;56.30;;;;;;5029210;28;20206;-84
2022/03/23 12:25:24;;;;;;;16.17;12.20;;;19.10;56.40;;;;;;5028335;28;20205;-84
2022/03/23 12:27:56;;;;;;;13.53;11.20;;;19.10;57.30;;;;;;5027826;28;20262;-84
2022/03/23 12:30:35;;;;;;;16.63;11.60;;;19.20;57.90;;;;;;5026347;28;20201;-83
2022/03/23 12:33:10;;;;;;;17.58;12.45;;;19.30;56.30;;;;;;5026119;28;20312;-84
2022/03/23 12:35:39;;;;;;;13.50;11.10;;;19.40;55.30;;;;;;5028135;28;20208;-84
2022/03/23 12:38:18;;;;;;;25.67;12.85;;;19.40;55.10;;;;;;5027665;28;20723;-84
2022/03/23 12:40:46;;;;;;;15.00;11.35;;;19.60;56.10;;;;;;5023455;28;20204;-83
2022/03/23 12:43:34;;;;;;;15.93;12.33;;;19.70;54.10;;;;;;5027812;28;20270;-84
2022/03/23 12:46:01;;;;;;;14.00;10.98;;;19.80;53.40;;;;;;5025416;28;20198;-84
2022/03/23 12:59:37;;;;;;;10.35;9.30;;;20.30;53.20;;;;;;5027142;28;20353;-84
2022/03/23 13:02:31;;;;;;;17.52;10.85;;;20.40;53.20;;;;;;5026941;28;20205;-85
2022/03/23 13:04:59;;;;;;;13.90;10.18;;;20.60;52.20;;;;;;5022169;28;20216;-85
2022/03/23 13:07:44;;;;;;;13.00;10.25;;;20.70;52.50;;;;;;5027720;28;20263;-84
2022/03/23 13:10:12;;;;;;;11.38;10.18;;;20.60;52.90;;;;;;5028368;28;20209;-84
2022/03/23 13:12:40;;;;;;;14.55;10.98;;;20.60;52.90;;;;;;5028449;28;20270;-84
2022/03/23 13:15:12;;;;;;;13.93;10.57;;;20.80;53.20;;;;;;5028534;28;20237;-84
2022/03/23 13:17:43;;;;;;;17.10;10.65;;;20.80;53.00;;;;;;5028578;28;20231;-84
2022/03/23 13:20:11;;;;;;;13.35;10.40;;;21.00;52.40;;;;;;5028374;28;20239;-82
2022/03/23 13:22:40;;;;;;;14.70;11.88;;;21.10;53.30;;;;;;5034401;28;20289;-84
2022/03/23 13:25:10;;;;;;;16.48;12.40;;;21.10;53.40;;;;;;5032970;28;20263;-84
2022/03/23 13:27:38;;;;;;;20.27;12.98;;;21.20;53.80;;;;;;5028242;28;20594;-85
2022/03/23 13:30:07;;;;;;;16.38;12.52;;;21.20;54.00;;;;;;5028767;28;20729;-85